This is the latest recevied weather packets stored in our database for station/object KY4OP-13. If no packets are shown the sender has not sent any weather packets the latest 10 day(s).
| Time | Temp. | Humidity | Pressure | Rain* | Wind** | Luminosity | Snow |
|---|---|---|---|---|---|---|---|
| 1777797355 | 6.11° C | 63% | 1017.5 hPa | 0 mm | - | - | - |
| 1777797051 | 6.11° C | 62% | 1017.7 hPa | 0 mm | - | - | - |
| 1777796748 | 5.56° C | 63% | 1017.7 hPa | 0 mm | - | - | - |
| 1777796444 | 5.56° C | 65% | 1017.7 hPa | 0 mm | - | - | - |
| 1777796139 | 5° C | 66% | 1017.7 hPa | 0 mm | - | - | - |
| 1777795837 | 4.44° C | 71% | 1017.4 hPa | 0 mm | - | - | - |
| 1777795532 | 3.33° C | 76% | 1017.3 hPa | 0 mm | - | - | - |
| 1777795229 | 3.33° C | 78% | 1017.3 hPa | 0 mm | - | - | - |
| 1777794926 | 2.22° C | 84% | 1017.4 hPa | 0 mm | - | - | - |
| 1777794623 | 2.22° C | 85% | 1017.4 hPa | 0 mm | - | - | - |
| 1777794318 | 2.22° C | 84% | 1017.2 hPa | 0 mm | - | - | - |
| 1777794014 | 2.78° C | 83% | 1017.1 hPa | 0 mm | - | - | - |
| 1777793711 | 2.78° C | 83% | 1017.3 hPa | 0 mm | - | - | - |
| 1777793410 | 2.78° C | 83% | 1017.2 hPa | 0 mm | - | - | - |
| 1777793106 | 2.78° C | 82% | 1017.1 hPa | 0 mm | - | - | - |
| 1777792803 | 3.33° C | 82% | 1016.9 hPa | 0 mm | - | - | - |
| 1777792500 | 3.33° C | 81% | 1017.2 hPa | 0 mm | - | - | - |
| 1777792196 | 3.33° C | 79% | 1017.1 hPa | 0 mm | - | - | - |
| 1777791893 | 3.33° C | 78% | 1016.8 hPa | 0 mm | - | - | - |
| 1777791591 | 3.89° C | 77% | 1016.7 hPa | 0 mm | - | - | - |
| 1777791289 | 3.89° C | 76% | 1016.8 hPa | 0 mm | - | - | - |
| 1777790986 | 4.44° C | 75% | 1016.8 hPa | 0 mm | - | - | - |
| 1777790684 | 4.44° C | 74% | 1016.6 hPa | 0 mm | - | - | - |
| 1777790381 | 4.44° C | 77% | 1016.6 hPa | 0 mm | - | - | - |
| 1777790078 | 4.44° C | 77% | 1016.6 hPa | 0 mm | - | - | - |
* Rain latest hour (hover to see other rain measurements)
** Current wind speed in m/s (hover to see current wind gust speed)